| time (UTC) | temp F | wind direction | speed MPH | gust MPH | rain 1hr in | rain 24hr in | rain mn in | humidity % | barometer mb |
| 20260510204808 | 63 | 221 | 1.0 | 1.0 | 0.24 | 0.05 | 0.05 | 88 | 1012.5 |
| 20260510204304 | 65 | 254 | 3.0 | 3.0 | 0.05 | 0.02 | 0.02 | 85 | 1012.3 |
| 20260510203801 | 67 | 220 | 2.0 | 2.0 | 0.00 | 0.01 | 0.01 | 77 | 1011.5 |
| 20260510203259 | 68 | 238 | 2.0 | 2.0 | 0.00 | 0.01 | 0.01 | 75 | 1011.4 |
| 20260510202758 | 69 | 105 | 4.0 | 5.0 | 0.00 | 0.01 | 0.01 | 72 | 1011.4 |
| 20260510202255 | 69 | 228 | 0.0 | 1.0 | 0.00 | 0.01 | 0.01 | 72 | 1011.6 |
| 20260510201752 | 70 | 234 | 3.0 | 3.0 | 0.00 | 0.01 | 0.01 | 72 | 1011.7 |
| 20260510201248 | 70 | 258 | 1.0 | 1.0 | 0.00 | 0.01 | 0.01 | 71 | 1011.7 |
| 20260510200745 | 69 | 220 | 0.0 | 1.0 | 0.00 | 0.01 | 0.01 | 73 | 1011.6 |
| 20260510200243 | 70 | 241 | 2.0 | 2.0 | 0.00 | 0.01 | 0.01 | 72 | 1011.7 |
| 20260510195739 | 71 | 211 | 1.0 | 2.0 | 0.00 | 0.01 | 0.01 | 70 | 1011.7 |
| 20260510195236 | 70 | 222 | 1.0 | 2.0 | 0.00 | 0.01 | 0.01 | 72 | 1011.7 |
| 20260510194735 | 68 | 167 | 0.0 | 1.0 | 0.00 | 0.01 | 0.01 | 74 | 1011.8 |
| 20260510194232 | 68 | 253 | 1.0 | 2.0 | 0.00 | 0.01 | 0.01 | 75 | 1011.9 |
| 20260510193728 | 68 | 207 | 0.0 | 1.0 | 0.00 | 0.01 | 0.01 | 75 | 1011.7 |
| 20260510193223 | 68 | 205 | 1.0 | 1.0 | 0.00 | 0.01 | 0.01 | 74 | 1011.9 |
| 20260510192718 | 67 | 176 | 2.0 | 3.0 | 0.00 | 0.01 | 0.01 | 75 | 1011.6 |
| 20260510192214 | 67 | 147 | 4.0 | 6.0 | 0.00 | 0.01 | 0.01 | 75 | 1011.8 |
| 20260510191710 | 68 | 208 | 2.0 | 3.0 | 0.00 | 0.01 | 0.01 | 72 | 1011.8 |
| 20260510191207 | 69 | 228 | 6.0 | 8.0 | 0.00 | 0.01 | 0.01 | 71 | 1012.0 |
| 20260510190704 | 69 | 200 | 2.0 | 2.0 | 0.00 | 0.01 | 0.01 | 72 | 1012.0 |
| 20260510190202 | 70 | 178 | 3.0 | 5.0 | 0.00 | 0.01 | 0.01 | 70 | 1011.7 |
| 20260510185658 | 69 | 163 | 1.0 | 1.0 | 0.00 | 0.01 | 0.01 | 73 | 1011.9 |
| 20260510185156 | 69 | 224 | 0.0 | 1.0 | 0.00 | 0.01 | 0.01 | 70 | 1011.9 |
| 20260510184652 | 69 | 221 | 0.0 | 1.0 | 0.00 | 0.01 | 0.01 | 70 | 1012.0 |
| 20260510184149 | 69 | 224 | 1.0 | 1.0 | 0.00 | 0.01 | 0.01 | 71 | 1011.8 |
| 20260510183645 | 70 | 246 | 2.0 | 3.0 | 0.00 | 0.01 | 0.01 | 71 | 1011.9 |
| 20260510183139 | 70 | 186 | 2.0 | 2.0 | 0.00 | 0.01 | 0.01 | 71 | 1011.9 |
| 20260510182636 | 72 | 210 | 2.0 | 3.0 | 0.00 | 0.01 | 0.01 | 68 | 1012.0 |
| 20260510182132 | 69 | 148 | 2.0 | 3.0 | 0.00 | 0.01 | 0.01 | 72 | 1012.0 |
| 20260510181629 | 70 | 235 | 3.0 | 3.0 | 0.00 | 0.01 | 0.01 | 70 | 1012.3 |
| 20260510181126 | 69 | 198 | 2.0 | 2.0 | 0.00 | 0.01 | 0.01 | 71 | 1012.3 |
| 20260510180621 | 69 | 121 | 3.0 | 3.0 | 0.00 | 0.01 | 0.01 | 72 | 1012.6 |
| 20260510180120 | 70 | 234 | 0.0 | 1.0 | 0.00 | 0.01 | 0.01 | 73 | 1012.5 |
| 20260510175615 | 67 | 176 | 2.0 | 2.0 | 0.00 | 0.01 | 0.01 | 77 | 1012.3 |
| 20260510175111 | 67 | 217 | 3.0 | 3.0 | 0.00 | 0.01 | 0.01 | 75 | 1012.1 |
| 20260510174609 | 68 | 228 | 1.0 | 2.0 | 0.00 | 0.01 | 0.01 | 75 | 1012.2 |
| 20260510174106 | 68 | 201 | 3.0 | 3.0 | 0.00 | 0.01 | 0.01 | 74 | 1012.0 |
| 20260510173602 | 66 | 227 | 4.0 | 5.0 | 0.00 | 0.01 | 0.01 | 75 | 1011.9 |
| 20260510173058 | 67 | 192 | 2.0 | 6.0 | 0.00 | 0.01 | 0.01 | 75 | 1012.0 |
| 20260510172554 | 67 | 218 | 4.0 | 5.0 | 0.00 | 0.01 | 0.01 | 76 | 1012.0 |
| 20260510172050 | 68 | 198 | 3.0 | 3.0 | 0.00 | 0.01 | 0.01 | 74 | 1012.2 |
| 20260510171547 | 69 | 158 | 3.0 | 7.0 | 0.00 | 0.01 | 0.01 | 74 | 1012.3 |
| 20260510171044 | 67 | 170 | 3.0 | 3.0 | 0.00 | 0.01 | 0.01 | 77 | 1012.5 |
| 20260510170540 | 68 | 322 | 4.0 | 6.0 | 0.00 | 0.01 | 0.01 | 72 | 1012.2 |
| 20260510170038 | 66 | 201 | 1.0 | 2.0 | 0.00 | 0.01 | 0.01 | 76 | 1012.2 |
| 20260510165533 | 67 | 249 | 2.0 | 3.0 | 0.00 | 0.01 | 0.01 | 74 | 1012.2 |
| 20260510165029 | 66 | 207 | 1.0 | 2.0 | 0.00 | 0.01 | 0.01 | 76 | 1012.4 |
| 20260510164526 | 65 | 233 | 3.0 | 3.0 | 0.00 | 0.01 | 0.01 | 80 | 1012.3 |
| 20260510164022 | 65 | 218 | 3.0 | 3.0 | 0.00 | 0.01 | 0.01 | 79 | 1012.5 |
| 20260510163513 | 64 | 226 | 3.0 | 6.0 | 0.00 | 0.01 | 0.01 | 80 | 1012.8 |
| 20260510163009 | 65 | 223 | 1.0 | 1.0 | 0.00 | 0.01 | 0.01 | 81 | 1012.4 |
| 20260510162504 | 65 | 230 | 3.0 | 3.0 | 0.00 | 0.01 | 0.01 | 78 | 1012.5 |
| 20260510162000 | 64 | 211 | 1.0 | 1.0 | 0.00 | 0.01 | 0.01 | 82 | 1012.6 |
| 20260510161456 | 63 | 204 | 2.0 | 2.0 | 0.00 | 0.01 | 0.01 | 81 | 1012.8 |
| 20260510160953 | 63 | 164 | 0.0 | 1.0 | 0.00 | 0.01 | 0.01 | 82 | 1012.6 |
| 20260510160450 | 64 | 240 | 3.0 | 5.0 | 0.00 | 0.01 | 0.01 | 80 | 1012.7 |
| 20260510155948 | 63 | 121 | 2.0 | 3.0 | 0.00 | 0.01 | 0.01 | 82 | 1012.9 |
| 20260510155440 | 62 | 231 | 2.0 | 2.0 | 0.00 | 0.01 | 0.01 | 83 | 1012.9 |
| 20260510154937 | 62 | 281 | 3.0 | 3.0 | 0.00 | 0.01 | 0.01 | 83 | 1013.0 |
| 20260510154432 | 62 | 232 | 1.0 | 2.0 | 0.00 | 0.01 | 0.01 | 82 | 1012.8 |
| 20260510153926 | 60 | 223 | 1.0 | 2.0 | 0.00 | 0.01 | 0.01 | 84 | 1013.1 |
| 20260510153423 | 61 | 237 | 2.0 | 3.0 | 0.00 | 0.01 | 0.01 | 84 | 1013.2 |
| 20260510152919 | 60 | 306 | 3.0 | 5.0 | 0.00 | 0.01 | 0.01 | 85 | 1013.3 |
| 20260510152417 | 59 | 239 | 1.0 | 2.0 | 0.00 | 0.01 | 0.01 | 86 | 1013.0 |
| 20260510151913 | 59 | 228 | 3.0 | 3.0 | 0.00 | 0.01 | 0.01 | 85 | 1013.3 |
| 20260510151411 | 59 | 228 | 1.0 | 2.0 | 0.00 | 0.01 | 0.01 | 86 | 1013.0 |
| 20260510150906 | 60 | 241 | 2.0 | 2.0 | 0.00 | 0.01 | 0.01 | 86 | 1013.2 |
| 20260510150402 | 59 | 226 | 1.0 | 2.0 | 0.00 | 0.01 | 0.01 | 88 | 1013.1 |
| 20260510145858 | 61 | 272 | 3.0 | 3.0 | 0.00 | 0.01 | 0.01 | 84 | 1013.1 |
| 20260510145355 | 59 | 228 | 1.0 | 1.0 | 0.00 | 0.01 | 0.01 | 86 | 1013.1 |
| 20260510144852 | 59 | 244 | 2.0 | 2.0 | 0.00 | 0.01 | 0.01 | 87 | 1012.9 |
| 20260510144349 | 60 | 248 | 3.0 | 3.0 | 0.00 | 0.01 | 0.01 | 85 | 1012.8 |
| 20260510143849 | 60 | 264 | 2.0 | 3.0 | 0.00 | 0.01 | 0.01 | 85 | 1012.8 |
| 20260510143345 | 60 | 220 | 1.0 | 1.0 | 0.00 | 0.01 | 0.01 | 87 | 1013.0 |
| 20260510142842 | 59 | 238 | 2.0 | 2.0 | 0.00 | 0.01 | 0.01 | 86 | 1012.9 |
| 20260510142338 | 59 | 221 | 3.0 | 3.0 | 0.00 | 0.01 | 0.01 | 87 | 1012.6 |
| 20260510141835 | 59 | 223 | 1.0 | 1.0 | 0.00 | 0.01 | 0.01 | 88 | 1012.6 |
| 20260510141333 | 58 | 225 | 1.0 | 2.0 | 0.00 | 0.01 | 0.01 | 89 | 1012.8 |
| 20260510140830 | 58 | 230 | 2.0 | 2.0 | 0.00 | 0.01 | 0.01 | 88 | 1012.6 |
| 20260510140326 | 58 | 225 | 1.0 | 1.0 | 0.00 | 0.01 | 0.01 | 89 | 1012.5 |
| 20260510135825 | 58 | 217 | 0.0 | 1.0 | 0.00 | 0.01 | 0.01 | 89 | 1012.4 |
| 20260510135321 | 57 | 227 | 1.0 | 1.0 | 0.00 | 0.01 | 0.01 | 88 | 1012.5 |
| 20260510134819 | 58 | 217 | 1.0 | 1.0 | 0.00 | 0.01 | 0.01 | 88 | 1012.8 |
| 20260510134315 | 58 | 221 | 0.0 | 0.0 | 0.00 | 0.01 | 0.01 | 88 | 1012.7 |
| 20260510133811 | 58 | 290 | 0.0 | 1.0 | 0.00 | 0.01 | 0.01 | 88 | 1012.7 |
| 20260510133308 | 58 | 228 | 1.0 | 1.0 | 0.00 | 0.01 | 0.01 | 90 | 1012.8 |
| 20260510132803 | 58 | 222 | 1.0 | 1.0 | 0.00 | 0.01 | 0.01 | 89 | 1012.8 |
| 20260510132305 | 58 | 237 | 1.0 | 1.0 | 0.00 | 0.01 | 0.01 | 92 | 1012.9 |
| 20260510131758 | 56 | 250 | 0.0 | 1.0 | 0.00 | 0.01 | 0.01 | 93 | 1012.8 |
| 20260510131256 | 55 | 219 | 1.0 | 1.0 | 0.00 | 0.01 | 0.01 | 94 | 1012.8 |
| 20260510130752 | 55 | 217 | 0.0 | 1.0 | 0.00 | 0.01 | 0.01 | 95 | 1012.8 |
| 20260510130249 | 55 | 220 | 0.0 | 1.0 | 0.00 | 0.01 | 0.01 | 96 | 1012.9 |
| 20260510125746 | 54 | 227 | 1.0 | 1.0 | 0.00 | 0.01 | 0.01 | 96 | 1012.8 |
| 20260510125241 | 54 | 195 | 1.0 | 2.0 | 0.00 | 0.01 | 0.01 | 98 | 1012.8 |
| 20260510124738 | 54 | 213 | 1.0 | 1.0 | 0.00 | 0.01 | 0.01 | 99 | 1012.6 |
| 20260510124236 | 54 | 218 | 0.0 | 0.0 | 0.00 | 0.01 | 0.01 | 99 | 1012.8 |
| 20260510123726 | 54 | 222 | 0.0 | 1.0 | 0.00 | 0.01 | 0.01 | 99 | 1012.7 |
| 20260510123222 | 54 | 217 | 0.0 | 0.0 | 0.00 | 0.01 | 0.01 | 99 | 1012.5 |
| 20260510122718 | 55 | 216 | 0.0 | 0.0 | 0.00 | 0.01 | 0.01 | 99 | 1012.6 |
| 20260510122215 | 55 | 162 | 1.0 | 2.0 | 0.00 | 0.01 | 0.01 | 99 | 1012.5 |
| 20260510121711 | 54 | 218 | 0.0 | 0.0 | 0.00 | 0.01 | 0.01 | 99 | 1012.6 |
| 20260510121209 | 54 | 219 | 0.0 | 1.0 | 0.00 | 0.01 | 0.01 | 99 | 1012.4 |
| 20260510120706 | 54 | 220 | 0.0 | 0.0 | 0.00 | 0.01 | 0.01 | 99 | 1012.2 |
| 20260510120202 | 53 | 211 | 0.0 | 0.0 | 0.00 | 0.01 | 0.01 | 99 | 1012.0 |
| 20260510115658 | 53 | 217 | 0.0 | 0.0 | 0.00 | 0.01 | 0.01 | 99 | 1012.1 |
| 20260510115156 | 53 | 219 | 0.0 | 0.0 | 0.00 | 0.01 | 0.01 | 99 | 1012.1 |
| 20260510114651 | 53 | 128 | 0.0 | 0.0 | 0.00 | 0.01 | 0.01 | 99 | 1011.8 |
| 20260510114148 | 53 | 224 | 0.0 | 0.0 | 0.00 | 0.01 | 0.01 | 99 | 1011.8 |
| 20260510113638 | 53 | 217 | 0.0 | 0.0 | 0.00 | 0.01 | 0.01 | 99 | 1011.9 |
| 20260510113135 | 53 | 218 | 0.0 | 0.0 | 0.00 | 0.01 | 0.01 | 99 | 1012.0 |
| 20260510112631 | 52 | 213 | 0.0 | 0.0 | 0.00 | 0.01 | 0.01 | 99 | 1012.1 |
| 20260510112127 | 52 | 226 | 1.0 | 1.0 | 0.00 | 0.01 | 0.01 | 99 | 1012.1 |
| 20260510111624 | 52 | 215 | 0.0 | 0.0 | 0.00 | 0.01 | 0.01 | 99 | 1012.0 |
| 20260510111120 | 52 | 213 | 0.0 | 0.0 | 0.00 | 0.01 | 0.01 | 99 | 1011.7 |
| 20260510110616 | 52 | 215 | 1.0 | 1.0 | 0.00 | 0.01 | 0.01 | 99 | 1011.9 |
| 20260510110113 | 52 | 217 | 0.0 | 0.0 | 0.00 | 0.01 | 0.01 | 99 | 1011.9 |
| 20260510105608 | 52 | 218 | 0.0 | 1.0 | 0.00 | 0.01 | 0.01 | 99 | 1011.5 |
| 20260510105103 | 52 | 236 | 1.0 | 1.0 | 0.00 | 0.01 | 0.01 | 99 | 1011.7 |
| 20260510104600 | 52 | 201 | 0.0 | 0.0 | 0.00 | 0.01 | 0.01 | 99 | 1011.5 |
| 20260510104056 | 52 | 210 | 0.0 | 0.0 | 0.00 | 0.01 | 0.01 | 99 | 1011.4 |
| 20260510103553 | 52 | 206 | 0.0 | 0.0 | 0.00 | 0.01 | 0.01 | 99 | 1011.7 |
| 20260510103049 | 51 | 200 | 0.0 | 0.0 | 0.00 | 0.01 | 0.01 | 99 | 1011.4 |
| 20260510102545 | 51 | 222 | 0.0 | 0.0 | 0.00 | 0.01 | 0.01 | 99 | 1011.8 |
| 20260510102041 | 51 | 215 | 0.0 | 0.0 | 0.00 | 0.01 | 0.01 | 99 | 1011.5 |
| 20260510101539 | 51 | 209 | 1.0 | 1.0 | 0.00 | 0.01 | 0.01 | 99 | 1011.5 |
| 20260510101038 | 51 | 220 | 0.0 | 1.0 | 0.00 | 0.01 | 0.01 | 99 | 1011.8 |
| 20260510100533 | 51 | 186 | 1.0 | 2.0 | 0.00 | 0.01 | 0.01 | 99 | 1011.6 |
| 20260510100031 | 51 | 203 | 0.0 | 0.0 | 0.00 | 0.01 | 0.01 | 99 | 1011.6 |
| 20260510095526 | 51 | 232 | 0.0 | 1.0 | 0.00 | 0.01 | 0.01 | 99 | 1011.9 |
| 20260510095025 | 51 | 207 | 0.0 | 0.0 | 0.00 | 0.01 | 0.01 | 99 | 1011.8 |
| 20260510094520 | 51 | 184 | 1.0 | 1.0 | 0.00 | 0.01 | 0.01 | 99 | 1011.5 |
| 20260510094016 | 51 | 186 | 1.0 | 2.0 | 0.00 | 0.01 | 0.01 | 99 | 1012.1 |
| 20260510093512 | 51 | 186 | 1.0 | 1.0 | 0.00 | 0.01 | 0.01 | 99 | 1012.0 |
| 20260510093009 | 51 | 203 | 0.0 | 0.0 | 0.00 | 0.01 | 0.01 | 99 | 1012.0 |
| 20260510092506 | 51 | 204 | 0.0 | 0.0 | 0.00 | 0.01 | 0.01 | 99 | 1012.1 |
| 20260510092005 | 51 | 202 | 0.0 | 1.0 | 0.00 | 0.01 | 0.01 | 99 | 1012.1 |
| 20260510091503 | 51 | 198 | 0.0 | 0.0 | 0.07 | 0.01 | 0.01 | 99 | 1011.8 |
| 20260510090958 | 51 | 215 | 0.0 | 0.0 | 0.07 | 0.01 | 0.01 | 99 | 1011.9 |
| 20260510090456 | 51 | 248 | 0.0 | 0.0 | 0.00 | 0.00 | 0.00 | 99 | 1011.9 |
| 20260510085951 | 51 | 213 | 0.0 | 0.0 | 0.00 | 0.00 | 0.00 | 99 | 1012.1 |
| 20260510085447 | 52 | 219 | 0.0 | 0.0 | 0.00 | 0.00 | 0.00 | 99 | 1012.1 |
| 20260510084942 | 52 | 201 | 1.0 | 1.0 | 0.00 | 0.00 | 0.00 | 99 | 1011.8 |
| 20260510084440 | 52 | 205 | 0.0 | 0.0 | 0.00 | 0.00 | 0.00 | 99 | 1011.9 |
| 20260510083936 | 52 | 215 | 0.0 | 0.0 | 0.00 | 0.00 | 0.00 | 99 | 1012.0 |
| 20260510083433 | 52 | 217 | 0.0 | 0.0 | 0.00 | 0.00 | 0.00 | 99 | 1012.1 |
| 20260510082928 | 52 | 220 | 0.0 | 0.0 | 0.00 | 0.00 | 0.00 | 99 | 1011.6 |
| 20260510082426 | 52 | 222 | 0.0 | 0.0 | 0.00 | 0.00 | 0.00 | 99 | 1011.8 |
| 20260510081925 | 52 | 217 | 0.0 | 0.0 | 0.00 | 0.00 | 0.00 | 99 | 1011.4 |
| 20260510081421 | 52 | 223 | 0.0 | 0.0 | 0.00 | 0.00 | 0.00 | 99 | 1011.7 |
| 20260510080918 | 52 | 233 | 0.0 | 1.0 | 0.00 | 0.00 | 0.00 | 99 | 1011.5 |
| 20260510080416 | 52 | 218 | 0.0 | 0.0 | 0.00 | 0.00 | 0.00 | 99 | 1011.3 |
| 20260510075914 | 52 | 220 | 0.0 | 0.0 | 0.00 | 0.00 | 0.00 | 99 | 1011.5 |
| 20260510075412 | 52 | 209 | 0.0 | 0.0 | 0.00 | 0.00 | 0.00 | 99 | 1011.4 |
| 20260510074908 | 52 | 196 | 0.0 | 1.0 | 0.00 | 0.00 | 0.00 | 99 | 1011.4 |
| 20260510074405 | 52 | 209 | 0.0 | 0.0 | 0.00 | 0.00 | 0.00 | 99 | 1011.4 |
| 20260510073902 | 52 | 206 | 0.0 | 0.0 | 0.00 | 0.00 | 0.00 | 99 | 1011.6 |
| 20260510073357 | 52 | 206 | 0.0 | 0.0 | 0.00 | 0.00 | 0.00 | 99 | 1011.4 |
| 20260510072853 | 52 | 206 | 0.0 | 0.0 | 0.00 | 0.00 | 0.00 | 99 | 1011.4 |
| 20260510072350 | 52 | 210 | 0.0 | 0.0 | 0.00 | 0.00 | 0.00 | 99 | 1011.2 |
| 20260510071846 | 52 | 205 | 0.0 | 0.0 | 0.00 | 0.00 | 0.00 | 99 | 1011.4 |
| 20260510071343 | 52 | 209 | 0.0 | 0.0 | 0.00 | 0.00 | 0.00 | 99 | 1011.6 |
| 20260510070842 | 52 | 208 | 0.0 | 0.0 | 0.00 | 0.00 | 0.00 | 99 | 1011.4 |
| 20260510070339 | 52 | 209 | 0.0 | 0.0 | 0.00 | 0.00 | 0.00 | 99 | 1011.4 |
| 20260510065839 | 52 | 209 | 0.0 | 0.0 | 0.00 | 0.00 | 0.00 | 99 | 1011.5 |
| 20260510065336 | 52 | 209 | 0.0 | 0.0 | 0.00 | 0.00 | 0.00 | 99 | 1011.3 |
| 20260510064832 | 52 | 209 | 0.0 | 0.0 | 0.00 | 0.00 | 0.00 | 99 | 1011.5 |
| 20260510064331 | 52 | 218 | 0.0 | 0.0 | 0.00 | 0.00 | 0.00 | 99 | 1011.2 |
| 20260510063827 | 52 | 218 | 0.0 | 0.0 | 0.00 | 0.00 | 0.00 | 99 | 1011.3 |
| 20260510063323 | 52 | 219 | 0.0 | 0.0 | 0.00 | 0.00 | 0.00 | 99 | 1011.3 |
| 20260510062820 | 52 | 208 | 0.0 | 0.0 | 0.00 | 0.00 | 0.00 | 99 | 1011.1 |
| 20260510062315 | 52 | 205 | 0.0 | 0.0 | 0.00 | 0.00 | 0.00 | 99 | 1011.0 |
| 20260510061811 | 53 | 210 | 0.0 | 0.0 | 0.00 | 0.00 | 0.00 | 99 | 1011.0 |
| 20260510061308 | 53 | 215 | 0.0 | 0.0 | 0.00 | 0.00 | 0.00 | 99 | 1010.9 |
| 20260510060804 | 53 | 215 | 0.0 | 0.0 | 0.00 | 0.00 | 0.00 | 99 | 1011.2 |
| 20260510060301 | 52 | 218 | 0.0 | 0.0 | 0.00 | 0.00 | 0.00 | 99 | 1010.9 |
| 20260510055758 | 53 | 216 | 0.0 | 0.0 | 0.00 | 0.00 | 0.00 | 99 | 1011.1 |
| 20260510055256 | 53 | 210 | 0.0 | 0.0 | 0.00 | 0.00 | 0.00 | 99 | 1011.0 |
| 20260510054755 | 53 | 205 | 0.0 | 0.0 | 0.00 | 0.00 | 0.00 | 99 | 1011.0 |
| 20260510054252 | 53 | 213 | 0.0 | 0.0 | 0.00 | 0.00 | 0.00 | 99 | 1011.5 |
| 20260510053752 | 53 | 204 | 0.0 | 0.0 | 0.00 | 0.00 | 0.00 | 99 | 1011.4 |
| 20260510053247 | 53 | 211 | 0.0 | 0.0 | 0.00 | 0.00 | 0.00 | 99 | 1011.2 |
| 20260510052744 | 53 | 213 | 0.0 | 0.0 | 0.00 | 0.00 | 0.00 | 99 | 1011.2 |
| 20260510052240 | 53 | 217 | 0.0 | 0.0 | 0.00 | 0.00 | 0.00 | 99 | 1011.3 |
| 20260510051736 | 53 | 217 | 0.0 | 0.0 | 0.00 | 0.00 | 0.00 | 99 | 1011.4 |
| 20260510051233 | 53 | 217 | 0.0 | 0.0 | 0.00 | 0.00 | 0.00 | 99 | 1011.2 |
| 20260510050729 | 53 | 217 | 0.0 | 0.0 | 0.00 | 0.00 | 0.00 | 99 | 1011.3 |
| 20260510050227 | 53 | 217 | 0.0 | 0.0 | 0.00 | 0.00 | 0.00 | 99 | 1011.3 |
| 20260510045723 | 53 | 179 | 0.0 | 0.0 | 0.00 | 0.00 | 0.00 | 99 | 1011.0 |
| 20260510045220 | 53 | 217 | 0.0 | 0.0 | 0.00 | 0.00 | 0.00 | 99 | 1011.4 |
| 20260510044716 | 53 | 209 | 0.0 | 0.0 | 0.00 | 0.00 | 0.00 | 99 | 1011.2 |
| 20260510044215 | 53 | 209 | 0.0 | 0.0 | 0.00 | 0.00 | 0.00 | 99 | 1011.4 |
| 20260510043709 | 53 | 209 | 0.0 | 0.0 | 0.00 | 0.00 | 0.00 | 99 | 1011.4 |
| 20260510043207 | 53 | 209 | 0.0 | 0.0 | 0.00 | 0.00 | 0.00 | 99 | 1011.2 |
| 20260510042703 | 53 | 213 | 0.0 | 0.0 | 0.00 | 0.00 | 0.00 | 99 | 1011.2 |
| 20260510042200 | 53 | 208 | 0.0 | 0.0 | 0.00 | 0.00 | 0.00 | 99 | 1010.9 |
| 20260510041657 | 53 | 211 | 0.0 | 0.0 | 0.00 | 0.00 | 0.00 | 99 | 1011.1 |
| 20260510041154 | 53 | 211 | 0.0 | 0.0 | 0.00 | 0.00 | 0.00 | 99 | 1011.0 |
| 20260510040651 | 53 | 220 | 0.0 | 0.0 | 0.00 | 0.00 | 0.00 | 99 | 1011.1 |
| 20260510040148 | 53 | 221 | 0.0 | 0.0 | 0.00 | 0.00 | 0.00 | 99 | 1010.9 |
| 20260510035643 | 53 | 221 | 0.0 | 0.0 | 0.00 | 0.88 | 0.88 | 99 | 1010.9 |
| 20260510035138 | 53 | 221 | 0.0 | 0.0 | 0.00 | 0.88 | 0.88 | 99 | 1011.0 |
| 20260510034636 | 53 | 222 | 0.0 | 0.0 | 0.00 | 0.88 | 0.88 | 99 | 1010.9 |
| 20260510034132 | 53 | 221 | 0.0 | 0.0 | 0.00 | 0.88 | 0.88 | 99 | 1011.0 |
| 20260510033629 | 53 | 217 | 0.0 | 0.0 | 0.00 | 0.88 | 0.88 | 99 | 1011.0 |
| 20260510033127 | 53 | 211 | 0.0 | 0.0 | 0.00 | 0.88 | 0.88 | 99 | 1011.1 |
| 20260510032623 | 53 | 212 | 0.0 | 0.0 | 0.00 | 0.88 | 0.88 | 99 | 1011.1 |
| 20260510032118 | 52 | 217 | 0.0 | 0.0 | 0.00 | 0.88 | 0.88 | 99 | 1011.2 |
| 20260510031613 | 52 | 218 | 0.0 | 0.0 | 0.00 | 0.88 | 0.88 | 99 | 1011.3 |
| 20260510031110 | 52 | 216 | 0.0 | 0.0 | 0.00 | 0.88 | 0.88 | 99 | 1011.0 |
| 20260510030605 | 52 | 208 | 0.0 | 0.0 | 0.00 | 0.88 | 0.88 | 99 | 1011.0 |
| 20260510030103 | 52 | 208 | 0.0 | 0.0 | 0.00 | 0.88 | 0.88 | 99 | 1011.2 |
| 20260510025600 | 52 | 207 | 0.0 | 0.0 | 0.00 | 0.88 | 0.88 | 99 | 1011.1 |
| 20260510025058 | 52 | 207 | 0.0 | 0.0 | 0.00 | 0.88 | 0.88 | 99 | 1011.0 |
| 20260510024554 | 52 | 207 | 0.0 | 0.0 | 0.00 | 0.88 | 0.88 | 99 | 1011.1 |
| 20260510024050 | 52 | 207 | 0.0 | 0.0 | 0.00 | 0.88 | 0.88 | 99 | 1011.1 |
| 20260510023546 | 52 | 207 | 0.0 | 0.0 | 0.00 | 0.88 | 0.88 | 99 | 1011.0 |
| 20260510023044 | 52 | 207 | 0.0 | 0.0 | 0.00 | 0.88 | 0.88 | 99 | 1011.2 |
| 20260510022543 | 52 | 207 | 0.0 | 0.0 | 0.00 | 0.88 | 0.88 | 99 | 1011.2 |
| 20260510022037 | 52 | 207 | 0.0 | 0.0 | 0.00 | 0.88 | 0.88 | 99 | 1011.3 |
| 20260510021534 | 52 | 208 | 0.0 | 0.0 | 0.00 | 0.88 | 0.88 | 99 | 1011.1 |
| 20260510021033 | 52 | 214 | 0.0 | 0.0 | 0.00 | 0.88 | 0.88 | 99 | 1011.0 |
| 20260510020532 | 52 | 217 | 0.0 | 0.0 | 0.00 | 0.88 | 0.88 | 99 | 1011.1 |
| 20260510020028 | 52 | 217 | 0.0 | 0.0 | 0.00 | 0.88 | 0.88 | 99 | 1011.1 |
| 20260510015523 | 52 | 209 | 0.0 | 0.0 | 0.00 | 0.88 | 0.88 | 99 | 1011.1 |
| 20260510015020 | 52 | 217 | 0.0 | 0.0 | 0.00 | 0.88 | 0.88 | 99 | 1011.1 |
| 20260510014517 | 52 | 215 | 0.0 | 0.0 | 0.00 | 0.88 | 0.88 | 99 | 1011.2 |
| 20260510014014 | 52 | 215 | 0.0 | 0.0 | 0.00 | 0.88 | 0.88 | 99 | 1011.1 |
| 20260510013508 | 53 | 216 | 0.0 | 0.0 | 0.00 | 0.88 | 0.88 | 99 | 1011.0 |
| 20260510013004 | 53 | 213 | 0.0 | 0.0 | 0.00 | 0.88 | 0.88 | 99 | 1011.0 |
| 20260510012459 | 52 | 206 | 0.0 | 0.0 | 0.00 | 0.88 | 0.88 | 99 | 1011.1 |
| 20260510011954 | 52 | 211 | 0.0 | 0.0 | 0.00 | 0.88 | 0.88 | 99 | 1011.1 |
| 20260510011449 | 52 | 211 | 0.0 | 0.0 | 0.00 | 0.88 | 0.88 | 99 | 1011.0 |
| 20260510010945 | 52 | 208 | 0.0 | 0.0 | 0.00 | 0.88 | 0.88 | 98 | 1011.1 |
| 20260510010443 | 52 | 241 | 0.0 | 0.0 | 0.00 | 0.88 | 0.88 | 98 | 1011.1 |
| 20260510005939 | 52 | 224 | 0.0 | 0.0 | 0.00 | 0.88 | 0.88 | 98 | 1010.9 |
| 20260510005435 | 52 | 222 | 1.0 | 1.0 | 0.00 | 0.88 | 0.88 | 98 | 1010.9 |
| 20260510004933 | 53 | 221 | 0.0 | 0.0 | 0.00 | 0.88 | 0.88 | 98 | 1010.6 |
| 20260510004430 | 53 | 165 | 2.0 | 2.0 | 0.00 | 0.88 | 0.88 | 98 | 1010.8 |
| 20260510003928 | 53 | 213 | 1.0 | 1.0 | 0.00 | 0.88 | 0.88 | 98 | 1010.6 |
| 20260510003425 | 53 | 209 | 0.0 | 0.0 | 0.00 | 0.88 | 0.88 | 98 | 1010.4 |
| 20260510002924 | 53 | 209 | 0.0 | 0.0 | 0.00 | 0.88 | 0.88 | 98 | 1010.5 |
| 20260510002421 | 53 | 210 | 0.0 | 0.0 | 0.00 | 0.88 | 0.88 | 98 | 1010.5 |
| 20260510001918 | 53 | 208 | 0.0 | 0.0 | 0.00 | 0.88 | 0.88 | 98 | 1010.5 |
| 20260510001415 | 53 | 217 | 0.0 | 0.0 | 0.00 | 0.88 | 0.88 | 97 | 1010.5 |
| 20260510000912 | 53 | 218 | 0.0 | 0.0 | 0.00 | 0.88 | 0.88 | 97 | 1010.4 |
| 20260510000411 | 53 | 209 | 1.0 | 1.0 | 0.00 | 0.88 | 0.88 | 97 | 1010.2 |
| 20260509235905 | 53 | 152 | 3.0 | 6.0 | 0.00 | 0.88 | 0.88 | 97 | 1010.1 |
| 20260509235402 | 54 | 203 | 1.0 | 1.0 | 0.00 | 0.88 | 0.88 | 97 | 1010.1 |
| 20260509234858 | 53 | 176 | 4.0 | 6.0 | 0.00 | 0.88 | 0.88 | 98 | 1010.1 |
| 20260509234356 | 53 | 99 | 4.0 | 6.0 | 0.07 | 0.88 | 0.88 | 98 | 1010.3 |
| 20260509233853 | 53 | 210 | 2.0 | 3.0 | 0.07 | 0.88 | 0.88 | 99 | 1010.1 |
| 20260509233351 | 54 | 119 | 2.0 | 2.0 | 0.05 | 0.87 | 0.87 | 99 | 1010.3 |
| 20260509232846 | 54 | 185 | 1.0 | 1.0 | 0.12 | 0.87 | 0.87 | 99 | 1010.8 |
| 20260509232345 | 54 | 220 | 0.0 | 1.0 | 0.19 | 0.86 | 0.86 | 99 | 1010.7 |
| 20260509231840 | 54 | 228 | 1.0 | 1.0 | 0.24 | 0.85 | 0.85 | 99 | 1010.8 |
| 20260509231337 | 54 | 168 | 2.0 | 3.0 | 0.31 | 0.84 | 0.84 | 99 | 1010.9 |
| 20260509230835 | 55 | 204 | 1.0 | 1.0 | 0.35 | 0.81 | 0.81 | 99 | 1011.1 |
| 20260509230332 | 55 | 222 | 0.0 | 0.0 | 0.35 | 0.79 | 0.79 | 99 | 1011.4 |
| 20260509225827 | 55 | 218 | 0.0 | 0.0 | 0.24 | 0.75 | 0.75 | 99 | 1011.3 |
| 20260509225324 | 55 | 220 | 1.0 | 2.0 | 0.05 | 0.72 | 0.72 | 99 | 1011.3 |
| 20260509224820 | 55 | 218 | 1.0 | 1.0 | 0.12 | 0.71 | 0.71 | 99 | 1011.3 |
| 20260509224316 | 55 | 192 | 1.0 | 1.0 | 0.17 | 0.70 | 0.70 | 99 | 1011.3 |
| 20260509223813 | 55 | 128 | 0.0 | 1.0 | 0.19 | 0.69 | 0.69 | 99 | 1011.1 |
| 20260509223310 | 55 | 224 | 1.0 | 1.0 | 0.17 | 0.68 | 0.68 | 99 | 1011.6 |
| 20260509222807 | 55 | 221 | 1.0 | 2.0 | 0.19 | 0.67 | 0.67 | 99 | 1011.4 |
| 20260509222306 | 55 | 223 | 0.0 | 1.0 | 0.26 | 0.65 | 0.65 | 99 | 1011.4 |
| 20260509221758 | 55 | 229 | 1.0 | 2.0 | 0.24 | 0.64 | 0.64 | 99 | 1011.4 |
| 20260509221255 | 55 | 217 | 0.0 | 1.0 | 0.17 | 0.61 | 0.61 | 99 | 1011.7 |
| 20260509220751 | 55 | 211 | 1.0 | 3.0 | 0.19 | 0.60 | 0.60 | 99 | 1011.3 |
| 20260509220247 | 55 | 217 | 1.0 | 1.0 | 0.12 | 0.58 | 0.58 | 99 | 1011.3 |
| 20260509215742 | 55 | 218 | 0.0 | 1.0 | 0.12 | 0.57 | 0.57 | 99 | 1011.2 |
| 20260509215239 | 55 | 235 | 2.0 | 2.0 | 0.12 | 0.56 | 0.56 | 99 | 1011.5 |
| 20260509214731 | 55 | 186 | 0.0 | 1.0 | 0.05 | 0.55 | 0.55 | 99 | 1011.4 |
| 20260509214228 | 55 | 237 | 1.0 | 2.0 | 0.00 | 0.54 | 0.54 | 99 | 1011.1 |
| 20260509213725 | 55 | 314 | 1.0 | 2.0 | 0.00 | 0.54 | 0.54 | 99 | 1011.3 |
| 20260509213221 | 55 | 203 | 3.0 | 5.0 | 0.00 | 0.54 | 0.54 | 99 | 1011.2 |
| 20260509212718 | 55 | 221 | 0.0 | 0.0 | 0.00 | 0.54 | 0.54 | 99 | 1011.3 |
| 20260509212215 | 55 | 221 | 0.0 | 0.0 | 0.00 | 0.54 | 0.54 | 99 | 1011.2 |
| 20260509211711 | 55 | 220 | 0.0 | 0.0 | 0.00 | 0.54 | 0.54 | 98 | 1011.1 |
| 20260509211208 | 55 | 210 | 0.0 | 0.0 | 0.00 | 0.54 | 0.54 | 99 | 1010.9 |
| 20260509210704 | 54 | 218 | 0.0 | 0.0 | 0.00 | 0.54 | 0.54 | 98 | 1011.0 |
| 20260509210202 | 54 | 196 | 0.0 | 0.0 | 0.07 | 0.54 | 0.54 | 98 | 1011.1 |
| 20260509205701 | 54 | 197 | 1.0 | 1.0 | 0.12 | 0.54 | 0.54 | 98 | 1010.6 |
| 20260509205200 | 54 | 184 | 1.0 | 2.0 | 0.05 | 0.53 | 0.53 | 98 | 1010.3 |